UTNU

Details ICAO UTNU (UGC)
Name URGENCH
Region Tajikistan, Turkmenistan and Uzbekistan
Timezone Asia/Samarkand (UTC+5.0)
Plans Departing 2
Arriving 11
Stats Elevation 320 ft / 98 m (AMSL)
Location 41.583093° 60.643350°
Runways 1
Magnetic Variation 6.243° E
Sunrise 2018-05-25 00:31:27 UTC / 2018-05-25 05:31:27 Local
Sunset 2018-05-25 15:20:07 UTC / 2018-05-25 20:20:07 Local
Advertisement - Login to hide

Runways

ID Width Length Bearing (true) Bearing (mag) Surface Threshold Offset Overrun Length
13 165 ft / 50 m 11,063 ft / 3,372 m 138.91° 132.67° Asphalt 0 ft / 0 m 164 ft / 50 m
31 165 ft / 50 m 11,063 ft / 3,372 m 318.93° 312.69° Asphalt 0 ft / 0 m 164 ft / 50 m

Map

Weather


0- 5 10 15 20 25 30 35+ Temperature / ° C

Clouds and Precipitation
Forecast for 2018-05-25 06:00 UTC. Updated 23 minutes ago

Ground ~20,000 ft ~40,000 ft Winds

METAR

UTNU 250500Z 06008KT CAVOK 24/M01 Q1015 R31/CLRD70 NOSIG

TAF

Not found

Frequencies

Tower 118.30 MHz TWR
Approach 126.00 MHz APP
Warning: Do not use this data for real-world aviation or navigation. No guarantee of current accuracy is given.